sensor_id;sensor_type;location;lat;lon;timestamp;P1;durP1;ratioP1;P2;durP2;ratioP2
37459;SDS011;23318;50.966;5.284;2023-04-25T00:02:02;22.15;;;5.53;;
37459;SDS011;23318;50.966;5.284;2023-04-25T00:04:28;18.90;;;4.93;;
37459;SDS011;23318;50.966;5.284;2023-04-25T00:06:54;22.75;;;5.38;;
37459;SDS011;23318;50.966;5.284;2023-04-25T00:09:20;21.83;;;5.45;;
37459;SDS011;23318;50.966;5.284;2023-04-25T00:11:50;26.23;;;6.32;;
37459;SDS011;23318;50.966;5.284;2023-04-25T00:14:16;22.83;;;5.32;;
37459;SDS011;23318;50.966;5.284;2023-04-25T00:16:42;18.35;;;5.70;;
37459;SDS011;23318;50.966;5.284;2023-04-25T00:19:09;20.30;;;5.00;;
37459;SDS011;23318;50.966;5.284;2023-04-25T00:21:35;19.42;;;5.75;;
37459;SDS011;23318;50.966;5.284;2023-04-25T00:24:02;21.85;;;5.60;;
37459;SDS011;23318;50.966;5.284;2023-04-25T00:26:28;31.90;;;5.82;;
37459;SDS011;23318;50.966;5.284;2023-04-25T00:28:55;23.50;;;5.18;;
37459;SDS011;23318;50.966;5.284;2023-04-25T00:31:20;19.55;;;5.93;;
37459;SDS011;23318;50.966;5.284;2023-04-25T00:33:47;17.40;;;6.10;;
37459;SDS011;23318;50.966;5.284;2023-04-25T00:36:13;14.85;;;5.57;;
37459;SDS011;23318;50.966;5.284;2023-04-25T00:38:39;16.80;;;5.82;;
37459;SDS011;23318;50.966;5.284;2023-04-25T00:41:08;17.23;;;5.35;;
37459;SDS011;23318;50.966;5.284;2023-04-25T00:43:34;14.43;;;5.00;;
37459;SDS011;23318;50.966;5.284;2023-04-25T00:46:01;20.73;;;5.50;;
37459;SDS011;23318;50.966;5.284;2023-04-25T00:48:27;24.27;;;6.20;;
37459;SDS011;23318;50.966;5.284;2023-04-25T00:50:54;30.08;;;5.95;;
37459;SDS011;23318;50.966;5.284;2023-04-25T00:53:22;21.33;;;5.88;;
37459;SDS011;23318;50.966;5.284;2023-04-25T00:55:49;18.13;;;4.78;;
37459;SDS011;23318;50.966;5.284;2023-04-25T00:58:18;20.55;;;5.57;;
37459;SDS011;23318;50.966;5.284;2023-04-25T01:00:45;24.05;;;5.57;;
37459;SDS011;23318;50.966;5.284;2023-04-25T01:03:16;21.30;;;6.25;;
37459;SDS011;23318;50.966;5.284;2023-04-25T01:05:44;17.80;;;5.65;;
37459;SDS011;23318;50.966;5.284;2023-04-25T01:08:10;22.75;;;6.13;;
37459;SDS011;23318;50.966;5.284;2023-04-25T01:10:38;22.42;;;6.18;;
37459;SDS011;23318;50.966;5.284;2023-04-25T01:13:03;21.92;;;6.13;;
37459;SDS011;23318;50.966;5.284;2023-04-25T01:15:29;22.13;;;5.45;;
37459;SDS011;23318;50.966;5.284;2023-04-25T01:17:55;17.83;;;5.28;;
37459;SDS011;23318;50.966;5.284;2023-04-25T01:20:22;19.80;;;5.72;;
37459;SDS011;23318;50.966;5.284;2023-04-25T01:22:48;23.17;;;5.82;;
37459;SDS011;23318;50.966;5.284;2023-04-25T01:25:17;22.73;;;4.70;;
37459;SDS011;23318;50.966;5.284;2023-04-25T01:27:44;21.00;;;6.25;;
37459;SDS011;23318;50.966;5.284;2023-04-25T01:30:10;24.75;;;6.57;;
37459;SDS011;23318;50.966;5.284;2023-04-25T01:32:36;26.40;;;7.47;;
37459;SDS011;23318;50.966;5.284;2023-04-25T01:35:09;21.02;;;5.78;;
37459;SDS011;23318;50.966;5.284;2023-04-25T01:37:40;25.83;;;6.07;;
37459;SDS011;23318;50.966;5.284;2023-04-25T01:40:10;19.13;;;5.65;;
37459;SDS011;23318;50.966;5.284;2023-04-25T01:42:37;17.85;;;4.85;;
37459;SDS011;23318;50.966;5.284;2023-04-25T01:45:05;25.23;;;6.00;;
37459;SDS011;23318;50.966;5.284;2023-04-25T01:47:32;24.35;;;5.82;;
37459;SDS011;23318;50.966;5.284;2023-04-25T01:50:00;21.58;;;6.05;;
37459;SDS011;23318;50.966;5.284;2023-04-25T01:52:26;23.95;;;6.00;;
37459;SDS011;23318;50.966;5.284;2023-04-25T01:54:52;25.40;;;5.55;;
37459;SDS011;23318;50.966;5.284;2023-04-25T01:57:18;22.23;;;6.45;;
37459;SDS011;23318;50.966;5.284;2023-04-25T01:59:44;20.95;;;5.45;;
37459;SDS011;23318;50.966;5.284;2023-04-25T02:02:10;21.80;;;5.72;;
37459;SDS011;23318;50.966;5.284;2023-04-25T02:04:35;17.63;;;5.10;;
37459;SDS011;23318;50.966;5.284;2023-04-25T02:07:01;26.50;;;6.03;;
37459;SDS011;23318;50.966;5.284;2023-04-25T02:09:28;18.17;;;5.53;;
37459;SDS011;23318;50.966;5.284;2023-04-25T02:11:53;22.30;;;6.32;;
37459;SDS011;23318;50.966;5.284;2023-04-25T02:14:19;19.52;;;5.45;;
37459;SDS011;23318;50.966;5.284;2023-04-25T02:16:45;18.05;;;5.93;;
37459;SDS011;23318;50.966;5.284;2023-04-25T02:19:12;18.90;;;6.40;;
37459;SDS011;23318;50.966;5.284;2023-04-25T02:21:37;18.15;;;6.05;;
37459;SDS011;23318;50.966;5.284;2023-04-25T02:24:03;20.70;;;5.63;;
37459;SDS011;23318;50.966;5.284;2023-04-25T02:26:29;24.73;;;5.88;;
37459;SDS011;23318;50.966;5.284;2023-04-25T02:28:56;21.65;;;5.65;;
37459;SDS011;23318;50.966;5.284;2023-04-25T02:31:22;23.90;;;6.03;;
37459;SDS011;23318;50.966;5.284;2023-04-25T02:33:48;26.90;;;6.25;;
37459;SDS011;23318;50.966;5.284;2023-04-25T02:36:13;24.50;;;6.20;;
37459;SDS011;23318;50.966;5.284;2023-04-25T02:38:40;20.70;;;6.43;;
37459;SDS011;23318;50.966;5.284;2023-04-25T02:41:05;25.27;;;5.90;;
37459;SDS011;23318;50.966;5.284;2023-04-25T02:43:31;21.20;;;6.25;;
37459;SDS011;23318;50.966;5.284;2023-04-25T02:45:57;21.20;;;6.20;;
37459;SDS011;23318;50.966;5.284;2023-04-25T02:48:22;22.45;;;5.90;;
37459;SDS011;23318;50.966;5.284;2023-04-25T02:50:48;26.88;;;6.28;;
37459;SDS011;23318;50.966;5.284;2023-04-25T02:53:14;18.88;;;5.68;;
37459;SDS011;23318;50.966;5.284;2023-04-25T02:55:40;17.08;;;5.57;;
37459;SDS011;23318;50.966;5.284;2023-04-25T02:58:05;23.30;;;6.07;;
37459;SDS011;23318;50.966;5.284;2023-04-25T03:00:31;19.17;;;5.60;;
37459;SDS011;23318;50.966;5.284;2023-04-25T03:02:57;26.52;;;6.07;;
37459;SDS011;23318;50.966;5.284;2023-04-25T03:05:22;17.52;;;6.63;;
37459;SDS011;23318;50.966;5.284;2023-04-25T03:07:48;22.02;;;6.90;;
37459;SDS011;23318;50.966;5.284;2023-04-25T03:10:14;27.77;;;6.90;;
37459;SDS011;23318;50.966;5.284;2023-04-25T03:12:39;22.13;;;6.20;;
37459;SDS011;23318;50.966;5.284;2023-04-25T03:15:05;21.52;;;7.05;;
37459;SDS011;23318;50.966;5.284;2023-04-25T03:17:31;17.15;;;6.03;;
37459;SDS011;23318;50.966;5.284;2023-04-25T03:19:57;20.13;;;6.70;;
37459;SDS011;23318;50.966;5.284;2023-04-25T03:22:22;23.23;;;6.55;;
37459;SDS011;23318;50.966;5.284;2023-04-25T03:24:49;25.20;;;6.97;;
37459;SDS011;23318;50.966;5.284;2023-04-25T03:27:15;28.48;;;7.05;;
37459;SDS011;23318;50.966;5.284;2023-04-25T03:29:41;22.42;;;6.40;;
37459;SDS011;23318;50.966;5.284;2023-04-25T03:32:06;25.35;;;6.43;;
37459;SDS011;23318;50.966;5.284;2023-04-25T03:34:32;25.15;;;6.78;;
37459;SDS011;23318;50.966;5.284;2023-04-25T03:36:58;20.45;;;6.53;;
37459;SDS011;23318;50.966;5.284;2023-04-25T03:39:24;28.33;;;6.90;;
37459;SDS011;23318;50.966;5.284;2023-04-25T03:41:50;25.05;;;7.57;;
37459;SDS011;23318;50.966;5.284;2023-04-25T03:44:16;31.75;;;7.97;;
37459;SDS011;23318;50.966;5.284;2023-04-25T03:46:42;29.17;;;6.72;;
37459;SDS011;23318;50.966;5.284;2023-04-25T03:49:08;20.75;;;6.60;;
37459;SDS011;23318;50.966;5.284;2023-04-25T03:51:33;25.30;;;6.78;;
37459;SDS011;23318;50.966;5.284;2023-04-25T03:53:59;27.50;;;8.18;;
37459;SDS011;23318;50.966;5.284;2023-04-25T03:56:25;18.73;;;6.68;;
37459;SDS011;23318;50.966;5.284;2023-04-25T03:58:50;29.88;;;7.95;;
37459;SDS011;23318;50.966;5.284;2023-04-25T04:01:16;26.05;;;7.90;;
37459;SDS011;23318;50.966;5.284;2023-04-25T04:03:42;26.27;;;6.80;;
37459;SDS011;23318;50.966;5.284;2023-04-25T04:06:08;26.55;;;8.32;;
37459;SDS011;23318;50.966;5.284;2023-04-25T04:08:34;26.08;;;6.75;;
37459;SDS011;23318;50.966;5.284;2023-04-25T04:10:59;25.77;;;7.90;;
37459;SDS011;23318;50.966;5.284;2023-04-25T04:13:26;21.92;;;6.57;;
37459;SDS011;23318;50.966;5.284;2023-04-25T04:15:52;26.40;;;5.45;;
37459;SDS011;23318;50.966;5.284;2023-04-25T04:18:18;18.08;;;4.90;;
37459;SDS011;23318;50.966;5.284;2023-04-25T04:20:44;22.38;;;5.38;;
37459;SDS011;23318;50.966;5.284;2023-04-25T04:23:09;16.52;;;4.38;;
37459;SDS011;23318;50.966;5.284;2023-04-25T04:25:35;20.60;;;5.47;;
37459;SDS011;23318;50.966;5.284;2023-04-25T04:28:01;19.65;;;4.80;;
37459;SDS011;23318;50.966;5.284;2023-04-25T04:30:27;20.58;;;5.22;;
37459;SDS011;23318;50.966;5.284;2023-04-25T04:32:56;18.60;;;5.38;;
37459;SDS011;23318;50.966;5.284;2023-04-25T04:35:22;18.38;;;4.55;;
37459;SDS011;23318;50.966;5.284;2023-04-25T04:37:49;22.30;;;4.65;;
37459;SDS011;23318;50.966;5.284;2023-04-25T04:40:15;20.23;;;4.35;;
37459;SDS011;23318;50.966;5.284;2023-04-25T04:42:42;15.93;;;4.28;;
37459;SDS011;23318;50.966;5.284;2023-04-25T04:45:10;18.45;;;5.07;;
37459;SDS011;23318;50.966;5.284;2023-04-25T04:47:37;15.90;;;4.57;;
37459;SDS011;23318;50.966;5.284;2023-04-25T04:50:04;15.30;;;3.55;;
37459;SDS011;23318;50.966;5.284;2023-04-25T04:52:33;14.40;;;4.18;;
37459;SDS011;23318;50.966;5.284;2023-04-25T04:54:59;24.33;;;4.47;;
37459;SDS011;23318;50.966;5.284;2023-04-25T04:57:25;14.18;;;3.63;;
37459;SDS011;23318;50.966;5.284;2023-04-25T04:59:51;18.88;;;4.32;;
37459;SDS011;23318;50.966;5.284;2023-04-25T05:02:17;21.90;;;4.40;;
37459;SDS011;23318;50.966;5.284;2023-04-25T05:04:43;17.83;;;4.70;;
37459;SDS011;23318;50.966;5.284;2023-04-25T05:07:08;15.25;;;3.60;;
37459;SDS011;23318;50.966;5.284;2023-04-25T05:09:34;18.88;;;4.97;;
37459;SDS011;23318;50.966;5.284;2023-04-25T05:12:00;15.70;;;5.07;;
37459;SDS011;23318;50.966;5.284;2023-04-25T05:14:26;15.38;;;3.70;;
37459;SDS011;23318;50.966;5.284;2023-04-25T05:16:51;15.48;;;4.45;;
37459;SDS011;23318;50.966;5.284;2023-04-25T05:19:17;15.15;;;3.85;;
37459;SDS011;23318;50.966;5.284;2023-04-25T05:21:43;14.52;;;4.03;;
37459;SDS011;23318;50.966;5.284;2023-04-25T05:24:08;21.92;;;4.45;;
37459;SDS011;23318;50.966;5.284;2023-04-25T05:26:34;18.63;;;4.45;;
37459;SDS011;23318;50.966;5.284;2023-04-25T05:29:00;18.50;;;4.43;;
37459;SDS011;23318;50.966;5.284;2023-04-25T05:31:26;14.60;;;4.15;;
37459;SDS011;23318;50.966;5.284;2023-04-25T05:33:51;19.35;;;4.85;;
37459;SDS011;23318;50.966;5.284;2023-04-25T05:36:20;18.70;;;4.40;;
37459;SDS011;23318;50.966;5.284;2023-04-25T05:38:46;18.92;;;5.00;;
37459;SDS011;23318;50.966;5.284;2023-04-25T05:41:12;16.75;;;4.22;;
37459;SDS011;23318;50.966;5.284;2023-04-25T05:43:37;15.02;;;4.70;;
37459;SDS011;23318;50.966;5.284;2023-04-25T05:46:03;24.10;;;5.70;;
37459;SDS011;23318;50.966;5.284;2023-04-25T05:48:29;16.55;;;5.03;;
37459;SDS011;23318;50.966;5.284;2023-04-25T05:50:55;19.88;;;4.95;;
37459;SDS011;23318;50.966;5.284;2023-04-25T05:53:21;19.77;;;4.95;;
37459;SDS011;23318;50.966;5.284;2023-04-25T05:55:47;21.58;;;5.25;;
37459;SDS011;23318;50.966;5.284;2023-04-25T05:58:13;24.52;;;5.88;;
37459;SDS011;23318;50.966;5.284;2023-04-25T06:00:38;27.80;;;6.65;;
37459;SDS011;23318;50.966;5.284;2023-04-25T06:03:06;27.77;;;6.38;;
37459;SDS011;23318;50.966;5.284;2023-04-25T06:05:34;23.25;;;6.53;;
37459;SDS011;23318;50.966;5.284;2023-04-25T06:08:00;19.90;;;5.70;;
37459;SDS011;23318;50.966;5.284;2023-04-25T06:10:26;24.60;;;6.85;;
37459;SDS011;23318;50.966;5.284;2023-04-25T06:12:51;23.73;;;6.57;;
37459;SDS011;23318;50.966;5.284;2023-04-25T06:15:17;22.60;;;6.20;;
37459;SDS011;23318;50.966;5.284;2023-04-25T06:17:43;23.67;;;6.85;;
37459;SDS011;23318;50.966;5.284;2023-04-25T06:20:09;24.92;;;6.55;;
37459;SDS011;23318;50.966;5.284;2023-04-25T06:22:35;22.67;;;5.95;;
37459;SDS011;23318;50.966;5.284;2023-04-25T06:25:00;23.77;;;6.22;;
37459;SDS011;23318;50.966;5.284;2023-04-25T06:27:28;21.40;;;6.07;;
37459;SDS011;23318;50.966;5.284;2023-04-25T06:29:54;18.67;;;5.43;;
37459;SDS011;23318;50.966;5.284;2023-04-25T06:32:20;22.45;;;6.68;;
37459;SDS011;23318;50.966;5.284;2023-04-25T06:34:45;18.98;;;5.20;;
37459;SDS011;23318;50.966;5.284;2023-04-25T06:37:11;19.55;;;6.15;;
37459;SDS011;23318;50.966;5.284;2023-04-25T06:39:37;19.27;;;6.25;;
37459;SDS011;23318;50.966;5.284;2023-04-25T06:42:02;20.15;;;6.40;;
37459;SDS011;23318;50.966;5.284;2023-04-25T06:44:28;18.98;;;6.43;;
37459;SDS011;23318;50.966;5.284;2023-04-25T06:46:54;25.00;;;7.60;;
37459;SDS011;23318;50.966;5.284;2023-04-25T06:49:20;17.95;;;6.55;;
37459;SDS011;23318;50.966;5.284;2023-04-25T06:51:46;27.58;;;7.45;;
37459;SDS011;23318;50.966;5.284;2023-04-25T06:54:12;21.23;;;7.25;;
37459;SDS011;23318;50.966;5.284;2023-04-25T06:56:37;28.95;;;7.40;;
37459;SDS011;23318;50.966;5.284;2023-04-25T06:59:03;22.60;;;6.60;;
37459;SDS011;23318;50.966;5.284;2023-04-25T07:01:29;21.30;;;8.68;;
37459;SDS011;23318;50.966;5.284;2023-04-25T07:03:55;24.50;;;7.60;;
37459;SDS011;23318;50.966;5.284;2023-04-25T07:06:20;24.95;;;7.15;;
37459;SDS011;23318;50.966;5.284;2023-04-25T07:08:46;20.20;;;7.88;;
37459;SDS011;23318;50.966;5.284;2023-04-25T07:11:11;29.67;;;9.30;;
37459;SDS011;23318;50.966;5.284;2023-04-25T07:13:37;24.00;;;7.65;;
37459;SDS011;23318;50.966;5.284;2023-04-25T07:16:03;24.30;;;7.28;;
37459;SDS011;23318;50.966;5.284;2023-04-25T07:18:29;24.98;;;6.50;;
37459;SDS011;23318;50.966;5.284;2023-04-25T07:20:54;22.27;;;6.55;;
37459;SDS011;23318;50.966;5.284;2023-04-25T07:23:20;24.48;;;6.47;;
37459;SDS011;23318;50.966;5.284;2023-04-25T07:25:46;18.75;;;6.40;;
37459;SDS011;23318;50.966;5.284;2023-04-25T07:28:12;25.85;;;7.03;;
37459;SDS011;23318;50.966;5.284;2023-04-25T07:30:37;22.60;;;7.13;;
37459;SDS011;23318;50.966;5.284;2023-04-25T07:33:03;31.58;;;8.00;;
37459;SDS011;23318;50.966;5.284;2023-04-25T07:35:29;25.52;;;4.85;;
37459;SDS011;23318;50.966;5.284;2023-04-25T07:37:55;22.40;;;4.30;;
37459;SDS011;23318;50.966;5.284;2023-04-25T07:40:20;15.90;;;4.00;;
37459;SDS011;23318;50.966;5.284;2023-04-25T07:42:46;17.38;;;4.63;;
37459;SDS011;23318;50.966;5.284;2023-04-25T07:45:12;24.30;;;4.22;;
37459;SDS011;23318;50.966;5.284;2023-04-25T07:47:38;18.58;;;4.38;;
37459;SDS011;23318;50.966;5.284;2023-04-25T07:50:04;16.17;;;3.53;;
37459;SDS011;23318;50.966;5.284;2023-04-25T07:52:30;13.77;;;3.38;;
37459;SDS011;23318;50.966;5.284;2023-04-25T07:54:56;11.82;;;2.47;;
37459;SDS011;23318;50.966;5.284;2023-04-25T07:57:23;16.75;;;3.53;;
37459;SDS011;23318;50.966;5.284;2023-04-25T07:59:49;11.68;;;3.20;;
37459;SDS011;23318;50.966;5.284;2023-04-25T08:02:15;13.35;;;2.85;;
37459;SDS011;23318;50.966;5.284;2023-04-25T08:04:40;12.90;;;2.92;;
37459;SDS011;23318;50.966;5.284;2023-04-25T08:07:06;11.65;;;3.05;;
37459;SDS011;23318;50.966;5.284;2023-04-25T08:09:32;12.85;;;3.13;;
37459;SDS011;23318;50.966;5.284;2023-04-25T08:12:01;16.88;;;3.58;;
37459;SDS011;23318;50.966;5.284;2023-04-25T08:14:28;13.95;;;3.05;;
37459;SDS011;23318;50.966;5.284;2023-04-25T08:16:56;10.88;;;2.58;;
37459;SDS011;23318;50.966;5.284;2023-04-25T08:19:21;14.35;;;2.60;;
37459;SDS011;23318;50.966;5.284;2023-04-25T08:21:47;17.08;;;2.88;;
37459;SDS011;23318;50.966;5.284;2023-04-25T08:24:13;11.60;;;3.17;;
37459;SDS011;23318;50.966;5.284;2023-04-25T08:26:38;15.77;;;3.03;;
37459;SDS011;23318;50.966;5.284;2023-04-25T08:29:05;11.25;;;2.78;;
37459;SDS011;23318;50.966;5.284;2023-04-25T08:31:31;11.82;;;2.20;;
37459;SDS011;23318;50.966;5.284;2023-04-25T08:33:57;10.35;;;2.95;;
37459;SDS011;23318;50.966;5.284;2023-04-25T08:36:22;11.73;;;2.78;;
37459;SDS011;23318;50.966;5.284;2023-04-25T08:38:48;13.77;;;3.30;;
37459;SDS011;23318;50.966;5.284;2023-04-25T08:41:14;13.40;;;3.45;;
37459;SDS011;23318;50.966;5.284;2023-04-25T08:43:41;19.27;;;4.63;;
37459;SDS011;23318;50.966;5.284;2023-04-25T08:46:08;10.70;;;3.85;;
37459;SDS011;23318;50.966;5.284;2023-04-25T08:48:36;13.32;;;4.45;;
37459;SDS011;23318;50.966;5.284;2023-04-25T08:51:02;17.15;;;4.47;;
37459;SDS011;23318;50.966;5.284;2023-04-25T08:53:32;13.43;;;4.82;;
37459;SDS011;23318;50.966;5.284;2023-04-25T08:55:59;14.43;;;5.18;;
37459;SDS011;23318;50.966;5.284;2023-04-25T08:58:28;14.90;;;4.63;;
37459;SDS011;23318;50.966;5.284;2023-04-25T09:00:54;13.25;;;4.28;;
37459;SDS011;23318;50.966;5.284;2023-04-25T09:03:20;16.77;;;4.88;;
37459;SDS011;23318;50.966;5.284;2023-04-25T09:05:45;20.25;;;4.68;;
37459;SDS011;23318;50.966;5.284;2023-04-25T09:08:11;17.35;;;4.93;;
37459;SDS011;23318;50.966;5.284;2023-04-25T09:10:37;11.38;;;4.90;;
37459;SDS011;23318;50.966;5.284;2023-04-25T09:13:04;18.55;;;4.55;;
37459;SDS011;23318;50.966;5.284;2023-04-25T09:15:46;10.88;;;3.58;;
37459;SDS011;23318;50.966;5.284;2023-04-25T09:18:13;17.73;;;3.95;;
37459;SDS011;23318;50.966;5.284;2023-04-25T09:20:46;22.30;;;5.00;;
37459;SDS011;23318;50.966;5.284;2023-04-25T09:23:12;15.43;;;3.80;;
37459;SDS011;23318;50.966;5.284;2023-04-25T09:25:39;9.85;;;3.70;;
37459;SDS011;23318;50.966;5.284;2023-04-25T09:28:05;10.70;;;3.70;;
37459;SDS011;23318;50.966;5.284;2023-04-25T09:30:32;8.35;;;2.40;;
37459;SDS011;23318;50.966;5.284;2023-04-25T09:33:06;11.15;;;3.35;;
37459;SDS011;23318;50.966;5.284;2023-04-25T09:35:39;19.05;;;3.60;;
37459;SDS011;23318;50.966;5.284;2023-04-25T09:38:09;15.23;;;2.90;;
37459;SDS011;23318;50.966;5.284;2023-04-25T09:40:42;12.70;;;2.80;;
37459;SDS011;23318;50.966;5.284;2023-04-25T09:43:10;12.60;;;2.75;;
37459;SDS011;23318;50.966;5.284;2023-04-25T09:45:46;8.77;;;2.38;;
37459;SDS011;23318;50.966;5.284;2023-04-25T09:48:15;10.90;;;3.50;;
37459;SDS011;23318;50.966;5.284;2023-04-25T09:50:57;11.80;;;2.78;;
37459;SDS011;23318;50.966;5.284;2023-04-25T09:53:30;10.52;;;2.85;;
37459;SDS011;23318;50.966;5.284;2023-04-25T09:55:58;8.95;;;2.10;;
37459;SDS011;23318;50.966;5.284;2023-04-25T09:58:25;11.23;;;2.55;;
37459;SDS011;23318;50.966;5.284;2023-04-25T10:00:54;14.50;;;2.65;;
37459;SDS011;23318;50.966;5.284;2023-04-25T10:03:26;10.48;;;2.92;;
37459;SDS011;23318;50.966;5.284;2023-04-25T10:05:56;8.23;;;2.33;;
37459;SDS011;23318;50.966;5.284;2023-04-25T10:08:25;10.95;;;2.22;;
37459;SDS011;23318;50.966;5.284;2023-04-25T10:11:03;11.80;;;2.70;;
37459;SDS011;23318;50.966;5.284;2023-04-25T10:13:30;13.27;;;2.53;;
37459;SDS011;23318;50.966;5.284;2023-04-25T10:16:00;7.80;;;2.58;;
37459;SDS011;23318;50.966;5.284;2023-04-25T10:18:28;10.27;;;2.30;;
37459;SDS011;23318;50.966;5.284;2023-04-25T10:20:59;12.18;;;2.53;;
37459;SDS011;23318;50.966;5.284;2023-04-25T10:23:26;12.48;;;2.70;;
37459;SDS011;23318;50.966;5.284;2023-04-25T10:25:54;6.63;;;2.22;;
37459;SDS011;23318;50.966;5.284;2023-04-25T10:28:20;9.73;;;1.90;;
37459;SDS011;23318;50.966;5.284;2023-04-25T10:31:07;9.48;;;2.03;;
37459;SDS011;23318;50.966;5.284;2023-04-25T10:33:36;9.93;;;1.83;;
37459;SDS011;23318;50.966;5.284;2023-04-25T10:36:13;7.47;;;1.50;;
37459;SDS011;23318;50.966;5.284;2023-04-25T10:38:40;6.43;;;1.50;;
37459;SDS011;23318;50.966;5.284;2023-04-25T10:41:08;3.75;;;1.58;;
37459;SDS011;23318;50.966;5.284;2023-04-25T10:46:23;8.40;;;1.40;;
37459;SDS011;23318;50.966;5.284;2023-04-25T10:48:52;3.70;;;1.30;;
37459;SDS011;23318;50.966;5.284;2023-04-25T10:51:23;7.30;;;1.20;;
37459;SDS011;23318;50.966;5.284;2023-04-25T10:56:21;7.78;;;1.05;;
37459;SDS011;23318;50.966;5.284;2023-04-25T10:58:48;5.43;;;1.27;;
37459;SDS011;23318;50.966;5.284;2023-04-25T11:01:14;3.67;;;1.33;;
37459;SDS011;23318;50.966;5.284;2023-04-25T11:03:56;4.80;;;1.17;;
37459;SDS011;23318;50.966;5.284;2023-04-25T11:06:25;6.85;;;1.38;;
37459;SDS011;23318;50.966;5.284;2023-04-25T11:09:08;10.35;;;1.30;;
37459;SDS011;23318;50.966;5.284;2023-04-25T11:11:38;3.55;;;1.33;;
37459;SDS011;23318;50.966;5.284;2023-04-25T11:14:03;5.82;;;1.63;;
37459;SDS011;23318;50.966;5.284;2023-04-25T11:16:29;4.90;;;1.35;;
37459;SDS011;23318;50.966;5.284;2023-04-25T11:18:57;7.18;;;1.73;;
37459;SDS011;23318;50.966;5.284;2023-04-25T11:21:23;5.03;;;1.40;;
37459;SDS011;23318;50.966;5.284;2023-04-25T11:23:51;7.05;;;1.58;;
37459;SDS011;23318;50.966;5.284;2023-04-25T11:26:18;7.57;;;1.92;;
37459;SDS011;23318;50.966;5.284;2023-04-25T11:28:45;4.35;;;1.50;;
37459;SDS011;23318;50.966;5.284;2023-04-25T11:31:12;7.65;;;1.98;;
37459;SDS011;23318;50.966;5.284;2023-04-25T11:33:37;7.93;;;2.00;;
37459;SDS011;23318;50.966;5.284;2023-04-25T11:36:05;9.60;;;1.77;;
37459;SDS011;23318;50.966;5.284;2023-04-25T11:38:31;8.73;;;1.73;;
37459;SDS011;23318;50.966;5.284;2023-04-25T11:40:57;13.52;;;3.33;;
37459;SDS011;23318;50.966;5.284;2023-04-25T11:43:23;4.85;;;1.27;;
37459;SDS011;23318;50.966;5.284;2023-04-25T11:45:50;3.28;;;1.50;;
37459;SDS011;23318;50.966;5.284;2023-04-25T11:48:17;4.65;;;1.30;;
37459;SDS011;23318;50.966;5.284;2023-04-25T11:50:43;7.45;;;1.80;;
37459;SDS011;23318;50.966;5.284;2023-04-25T11:53:10;6.35;;;1.60;;
37459;SDS011;23318;50.966;5.284;2023-04-25T11:55:36;9.85;;;1.95;;
37459;SDS011;23318;50.966;5.284;2023-04-25T11:58:02;7.65;;;1.83;;
37459;SDS011;23318;50.966;5.284;2023-04-25T12:00:29;6.00;;;1.20;;
37459;SDS011;23318;50.966;5.284;2023-04-25T12:02:56;4.95;;;1.33;;
37459;SDS011;23318;50.966;5.284;2023-04-25T12:05:31;4.80;;;1.30;;
37459;SDS011;23318;50.966;5.284;2023-04-25T12:08:13;9.00;;;1.50;;
37459;SDS011;23318;50.966;5.284;2023-04-25T12:10:39;4.55;;;1.63;;
37459;SDS011;23318;50.966;5.284;2023-04-25T12:13:22;7.88;;;1.80;;
37459;SDS011;23318;50.966;5.284;2023-04-25T12:15:49;7.30;;;2.10;;
37459;SDS011;23318;50.966;5.284;2023-04-25T12:18:18;9.10;;;2.08;;
37459;SDS011;23318;50.966;5.284;2023-04-25T12:20:46;5.07;;;1.20;;
37459;SDS011;23318;50.966;5.284;2023-04-25T12:23:11;10.38;;;1.60;;
37459;SDS011;23318;50.966;5.284;2023-04-25T12:25:42;5.53;;;1.60;;
37459;SDS011;23318;50.966;5.284;2023-04-25T12:28:16;6.95;;;1.50;;
37459;SDS011;23318;50.966;5.284;2023-04-25T12:33:25;4.55;;;1.73;;
37459;SDS011;23318;50.966;5.284;2023-04-25T12:35:52;6.72;;;1.45;;
37459;SDS011;23318;50.966;5.284;2023-04-25T12:40:50;7.93;;;2.25;;
37459;SDS011;23318;50.966;5.284;2023-04-25T12:43:16;8.95;;;1.60;;
37459;SDS011;23318;50.966;5.284;2023-04-25T12:45:43;5.78;;;1.83;;
37459;SDS011;23318;50.966;5.284;2023-04-25T12:48:19;6.93;;;1.67;;
37459;SDS011;23318;50.966;5.284;2023-04-25T12:50:45;5.38;;;1.50;;
37459;SDS011;23318;50.966;5.284;2023-04-25T12:53:21;6.10;;;1.90;;
37459;SDS011;23318;50.966;5.284;2023-04-25T12:55:48;5.28;;;1.40;;
37459;SDS011;23318;50.966;5.284;2023-04-25T12:58:14;8.27;;;1.52;;
37459;SDS011;23318;50.966;5.284;2023-04-25T13:00:43;3.95;;;1.48;;
37459;SDS011;23318;50.966;5.284;2023-04-25T13:03:10;4.03;;;1.40;;
37459;SDS011;23318;50.966;5.284;2023-04-25T13:05:37;5.25;;;1.45;;
37459;SDS011;23318;50.966;5.284;2023-04-25T13:08:03;5.57;;;1.33;;
37459;SDS011;23318;50.966;5.284;2023-04-25T13:10:29;6.53;;;1.38;;
37459;SDS011;23318;50.966;5.284;2023-04-25T13:12:55;9.70;;;1.67;;
37459;SDS011;23318;50.966;5.284;2023-04-25T13:15:21;8.55;;;1.80;;
37459;SDS011;23318;50.966;5.284;2023-04-25T13:17:48;6.95;;;1.80;;
37459;SDS011;23318;50.966;5.284;2023-04-25T13:20:13;8.98;;;2.60;;
37459;SDS011;23318;50.966;5.284;2023-04-25T13:22:40;5.70;;;1.95;;
37459;SDS011;23318;50.966;5.284;2023-04-25T13:25:07;10.57;;;2.33;;
37459;SDS011;23318;50.966;5.284;2023-04-25T13:27:33;6.85;;;2.17;;
37459;SDS011;23318;50.966;5.284;2023-04-25T13:30:01;5.97;;;1.58;;
37459;SDS011;23318;50.966;5.284;2023-04-25T13:32:32;4.25;;;1.60;;
37459;SDS011;23318;50.966;5.284;2023-04-25T13:35:01;7.05;;;2.58;;
37459;SDS011;23318;50.966;5.284;2023-04-25T13:37:28;6.60;;;2.25;;
37459;SDS011;23318;50.966;5.284;2023-04-25T13:39:55;6.05;;;1.90;;
37459;SDS011;23318;50.966;5.284;2023-04-25T13:42:21;5.88;;;1.60;;
37459;SDS011;23318;50.966;5.284;2023-04-25T13:44:48;3.40;;;1.40;;
37459;SDS011;23318;50.966;5.284;2023-04-25T13:47:13;6.05;;;1.40;;
37459;SDS011;23318;50.966;5.284;2023-04-25T13:49:39;6.55;;;2.47;;
37459;SDS011;23318;50.966;5.284;2023-04-25T13:52:05;7.65;;;2.25;;
37459;SDS011;23318;50.966;5.284;2023-04-25T13:54:31;5.18;;;1.50;;
37459;SDS011;23318;50.966;5.284;2023-04-25T13:56:56;7.18;;;2.20;;
37459;SDS011;23318;50.966;5.284;2023-04-25T13:59:24;7.03;;;1.63;;
37459;SDS011;23318;50.966;5.284;2023-04-25T14:01:50;7.15;;;2.20;;
37459;SDS011;23318;50.966;5.284;2023-04-25T14:04:16;6.00;;;1.58;;
37459;SDS011;23318;50.966;5.284;2023-04-25T14:06:42;8.95;;;1.60;;
37459;SDS011;23318;50.966;5.284;2023-04-25T14:09:08;4.70;;;1.05;;
37459;SDS011;23318;50.966;5.284;2023-04-25T14:11:36;5.00;;;1.30;;
37459;SDS011;23318;50.966;5.284;2023-04-25T14:14:02;4.45;;;0.93;;
37459;SDS011;23318;50.966;5.284;2023-04-25T14:16:28;4.80;;;1.38;;
37459;SDS011;23318;50.966;5.284;2023-04-25T14:18:54;8.98;;;1.55;;
37459;SDS011;23318;50.966;5.284;2023-04-25T14:21:20;8.30;;;1.50;;
37459;SDS011;23318;50.966;5.284;2023-04-25T14:23:46;5.32;;;1.48;;
37459;SDS011;23318;50.966;5.284;2023-04-25T14:26:12;5.50;;;1.20;;
37459;SDS011;23318;50.966;5.284;2023-04-25T14:28:38;4.70;;;1.08;;
37459;SDS011;23318;50.966;5.284;2023-04-25T14:31:04;7.85;;;1.48;;
37459;SDS011;23318;50.966;5.284;2023-04-25T14:33:29;6.15;;;1.63;;
37459;SDS011;23318;50.966;5.284;2023-04-25T14:35:55;11.48;;;2.20;;
37459;SDS011;23318;50.966;5.284;2023-04-25T14:38:22;6.63;;;1.20;;
37459;SDS011;23318;50.966;5.284;2023-04-25T14:40:50;6.70;;;1.70;;
37459;SDS011;23318;50.966;5.284;2023-04-25T14:43:16;5.10;;;1.65;;
37459;SDS011;23318;50.966;5.284;2023-04-25T14:45:41;3.10;;;1.48;;
37459;SDS011;23318;50.966;5.284;2023-04-25T14:48:07;4.30;;;1.48;;